Time;durP1;ratioP1;P1;durP2;ratioP2;P2;SDS_P1;SDS_P2;PMS_P1;PMS_P2;Temp;Humidity;BMP_temperature;BMP_pressure;BME280_temperature;BME280_humidity;BME280_pressure;Samples;Min_cycle;Max_cycle;Signal;HPM_P1;HPM_P2
2022/09/03 07:44:24;;;;;;;8.45;1.15;;;19.80;54.20;;;;;;6198366;22;20032;-76
2022/09/03 07:46:49;;;;;;;6.18;1.02;;;19.90;54.90;;;;;;6191975;23;20028;-73
2022/09/03 07:49:16;;;;;;;10.10;1.13;;;19.90;55.20;;;;;;6192684;23;20020;-76
2022/09/03 07:51:45;;;;;;;7.82;1.20;;;20.00;55.30;;;;;;6218793;23;20012;-74
2022/09/03 07:54:11;;;;;;;9.75;1.30;;;19.90;55.00;;;;;;6218967;23;20088;-78
2022/09/03 07:56:38;;;;;;;6.88;1.42;;;20.00;55.30;;;;;;6192356;23;20117;-79
2022/09/03 07:59:05;;;;;;;16.52;2.00;;;19.90;54.60;;;;;;6167480;23;20019;-78
2022/09/03 08:01:32;;;;;;;8.75;1.25;;;19.90;55.20;;;;;;6218708;23;20013;-78
2022/09/03 08:03:59;;;;;;;8.13;1.35;;;20.00;55.50;;;;;;6192742;23;20035;-78
2022/09/03 08:06:27;;;;;;;11.57;1.70;;;20.00;55.80;;;;;;6192582;23;20090;-78
2022/09/03 08:08:58;;;;;;;4.78;0.95;;;20.10;55.70;;;;;;6217578;23;20023;-79
2022/09/03 08:11:25;;;;;;;4.05;0.80;;;20.20;55.20;;;;;;6217519;23;20019;-79
2022/09/03 08:14:01;;;;;;;5.22;0.77;;;20.20;54.50;;;;;;6217849;23;20013;-77
2022/09/03 08:16:29;;;;;;;15.15;1.60;;;20.30;54.60;;;;;;6192421;23;20008;-78
2022/09/03 08:18:55;;;;;;;15.05;2.10;;;20.20;54.60;;;;;;6192304;23;20016;-76
2022/09/03 08:21:21;;;;;;;31.88;3.42;;;20.30;55.20;;;;;;6167735;23;20016;-80
2022/09/03 08:23:48;;;;;;;24.40;2.60;;;20.20;55.50;;;;;;6218577;23;20062;-77
2022/09/03 08:26:16;;;;;;;15.98;1.60;;;20.30;55.60;;;;;;6218025;23;20421;-80
2022/09/03 08:28:42;;;;;;;12.65;1.70;;;20.30;55.80;;;;;;6193167;23;20020;-77
2022/09/03 09:35:16;;;;;;;8.02;1.10;;;20.80;57.30;;;;;;6210671;23;20298;-74
2022/09/03 09:37:53;;;;;;;6.75;1.40;;;20.80;57.10;;;;;;6217702;23;20028;-75
2022/09/03 09:40:32;;;;;;;8.00;1.63;;;20.90;57.30;;;;;;6218482;23;20102;-76
2022/09/03 09:43:05;;;;;;;9.93;1.20;;;20.90;57.50;;;;;;6215973;23;20017;-73
2022/09/03 09:45:33;;;;;;;15.70;1.93;;;20.90;57.60;;;;;;6216625;23;20051;-80
2022/09/03 09:48:00;;;;;;;8.57;1.63;;;20.90;57.60;;;;;;6191051;23;20016;-77
2022/09/03 09:50:26;;;;;;;8.15;1.45;;;21.00;57.60;;;;;;6217579;23;20016;-76
2022/09/03 09:53:13;;;;;;;5.60;1.00;;;21.00;57.70;;;;;;6217280;23;20138;-76
2022/09/03 09:55:50;;;;;;;7.20;1.20;;;21.00;57.80;;;;;;6217593;23;20012;-79
2022/09/03 09:58:19;;;;;;;5.45;0.90;;;21.00;58.00;;;;;;6218193;23;20028;-78
2022/09/03 10:01:24;;;;;;;5.45;0.80;;;21.00;57.20;;;;;;6218000;23;20310;-76
2022/09/03 10:04:08;;;;;;;8.73;0.90;;;21.00;56.50;;;;;;6157838;23;20028;-78
2022/09/03 10:06:52;;;;;;;5.05;0.82;;;21.00;56.70;;;;;;6217245;23;20298;-78
2022/09/03 10:09:25;;;;;;;3.00;0.88;;;21.00;56.90;;;;;;6216466;23;20020;-75
2022/09/03 10:12:18;;;;;;;14.73;1.67;;;21.10;57.10;;;;;;6190736;23;20020;-76
2022/09/03 10:14:52;;;;;;;6.68;1.10;;;21.10;57.90;;;;;;6191877;23;20435;-76
2022/09/03 10:17:34;;;;;;;3.55;0.82;;;21.10;57.40;;;;;;6217606;23;20056;-78
2022/09/03 10:20:26;;;;;;;4.40;0.98;;;21.10;57.40;;;;;;6218679;23;20092;-76
2022/09/03 10:23:04;;;;;;;3.83;0.80;;;21.10;57.30;;;;;;6217596;23;20206;-76
2022/09/03 10:25:49;;;;;;;9.02;1.10;;;21.10;57.50;;;;;;6218539;23;20095;-76
2022/09/03 10:28:15;;;;;;;9.20;1.13;;;21.10;57.50;;;;;;6217831;23;20325;-75
2022/09/03 10:31:12;;;;;;;11.82;1.42;;;21.10;57.40;;;;;;6217450;23;20025;-78
2022/09/03 10:33:54;;;;;;;9.77;1.35;;;21.10;57.50;;;;;;6216477;23;20088;-77
2022/09/03 10:36:22;;;;;;;17.48;2.40;;;21.10;57.50;;;;;;6213023;23;20016;-77
2022/09/03 10:39:04;;;;;;;11.85;1.80;;;21.10;57.60;;;;;;6217156;23;20023;-80
2022/09/03 10:42:01;;;;;;;13.15;1.85;;;21.20;57.60;;;;;;6218372;23;20020;-81
2022/09/03 10:44:49;;;;;;;10.35;1.80;;;21.20;58.30;;;;;;6167774;23;20075;-80
2022/09/03 10:47:34;;;;;;;11.50;1.95;;;21.20;58.20;;;;;;6167790;23;20015;-83
2022/09/03 10:50:16;;;;;;;9.48;1.42;;;21.20;58.20;;;;;;6168319;23;20101;-85
2022/09/03 10:52:53;;;;;;;6.68;1.45;;;21.20;58.10;;;;;;6168728;23;20421;-80
2022/09/03 10:55:34;;;;;;;12.95;1.30;;;21.30;58.00;;;;;;6167894;23;20087;-77
2022/09/03 10:58:27;;;;;;;9.27;1.10;;;21.20;57.70;;;;;;6219361;23;20021;-79
2022/09/03 11:01:02;;;;;;;12.27;1.70;;;21.20;57.70;;;;;;6219304;23;20040;-78
2022/09/03 11:03:37;;;;;;;12.48;1.40;;;21.30;57.90;;;;;;6218975;23;20075;-76
2022/09/03 11:06:10;;;;;;;10.57;1.27;;;21.30;58.10;;;;;;6219284;23;20048;-76
2022/09/03 11:08:44;;;;;;;6.78;0.90;;;21.30;58.50;;;;;;6219220;23;20287;-76
2022/09/03 11:11:18;;;;;;;10.10;1.30;;;21.30;58.10;;;;;;6192557;23;20016;-75
2022/09/03 11:13:56;;;;;;;9.00;2.03;;;21.30;58.60;;;;;;6219092;23;20027;-76
2022/09/03 11:16:29;;;;;;;6.35;1.00;;;21.30;57.90;;;;;;6219162;23;20009;-77
2022/09/03 11:19:06;;;;;;;4.60;1.10;;;21.30;57.00;;;;;;6219260;23;20023;-76
2022/09/03 11:21:35;;;;;;;7.30;1.02;;;21.40;56.30;;;;;;6218651;23;20087;-77
2022/09/03 11:24:25;;;;;;;4.93;0.90;;;21.40;56.00;;;;;;6219000;23;20016;-75
2022/09/03 11:27:29;;;;;;;6.38;1.25;;;21.40;56.60;;;;;;6218991;23;20020;-75
2022/09/03 11:30:06;;;;;;;3.97;0.65;;;21.40;56.60;;;;;;6152974;23;20021;-77
2022/09/03 11:32:47;;;;;;;2.95;0.93;;;21.40;57.10;;;;;;6192608;23;20084;-76
2022/09/03 11:35:39;;;;;;;5.35;0.80;;;21.40;57.30;;;;;;6191400;23;20074;-75
2022/09/03 11:38:22;;;;;;;2.53;0.40;;;21.40;57.20;;;;;;6217957;23;20024;-76
2022/09/03 11:40:57;;;;;;;6.43;0.98;;;21.40;57.30;;;;;;6190299;23;20027;-77
2022/09/03 11:43:22;;;;;;;9.77;1.35;;;21.50;57.40;;;;;;6218638;23;20012;-76
2022/09/03 11:45:49;;;;;;;6.57;1.10;;;21.50;57.40;;;;;;6192580;23;20020;-79
2022/09/03 11:48:35;;;;;;;4.47;1.05;;;21.50;57.30;;;;;;6218225;23;20083;-78
2022/09/03 11:51:03;;;;;;;10.63;1.15;;;21.50;57.40;;;;;;6218647;23;20021;-76
2022/09/03 11:53:35;;;;;;;8.95;1.20;;;21.50;57.30;;;;;;6218320;23;20087;-79
2022/09/03 11:56:04;;;;;;;12.57;1.20;;;21.50;57.30;;;;;;6218855;23;20078;-77
2022/09/03 11:58:36;;;;;;;10.65;1.52;;;21.50;57.00;;;;;;6193389;23;20027;-76
2022/09/03 12:01:07;;;;;;;6.03;0.82;;;21.50;56.90;;;;;;6218413;23;20016;-77
2022/09/03 12:03:48;;;;;;;3.22;0.85;;;21.50;57.00;;;;;;6218318;23;20500;-78
2022/09/03 12:06:56;;;;;;;3.92;0.80;;;21.50;57.10;;;;;;6193500;23;20043;-78
2022/09/03 12:09:44;;;;;;;5.53;1.08;;;21.50;57.10;;;;;;6219332;23;20267;-77
2022/09/03 12:12:28;;;;;;;2.83;0.60;;;21.50;57.30;;;;;;6218829;23;20405;-78
2022/09/03 12:15:13;;;;;;;5.35;0.85;;;21.50;57.30;;;;;;6218580;23;20020;-76
2022/09/03 12:20:40;;;;;;;6.25;1.20;;;21.50;57.40;;;;;;6217909;23;20017;-77
2022/09/03 12:23:07;;;;;;;4.40;0.80;;;21.50;57.40;;;;;;6218447;23;20020;-78
2022/09/03 15:39:08;;;;;;;4.38;1.00;;;22.10;60.70;;;;;;6204635;22;20098;-72
2022/09/03 15:41:44;;;;;;;8.60;0.90;;;22.10;57.70;;;;;;6218007;23;20422;-74
2022/09/03 15:44:14;;;;;;;5.75;1.85;;;22.10;56.80;;;;;;6218922;23;20020;-74
2022/09/03 15:46:55;;;;;;;3.97;1.42;;;22.10;56.30;;;;;;6218666;23;20409;-75
2022/09/03 15:49:27;;;;;;;4.72;1.58;;;22.20;56.70;;;;;;6218612;23;20027;-74
2022/09/03 15:52:08;;;;;;;15.23;1.52;;;22.20;56.00;;;;;;6218674;23;20020;-71
2022/09/03 15:54:45;;;;;;;3.67;1.20;;;22.20;56.70;;;;;;6218776;23;20028;-71
2022/09/03 15:57:30;;;;;;;2.05;0.93;;;22.20;56.60;;;;;;6218350;23;20368;-72
2022/09/03 16:00:00;;;;;;;3.63;0.90;;;22.20;57.00;;;;;;6218670;23;20095;-72
2022/09/03 16:02:48;;;;;;;3.15;1.13;;;22.20;56.80;;;;;;6217978;23;20016;-72
2022/09/03 16:05:49;;;;;;;2.40;0.93;;;22.20;56.70;;;;;;6218642;23;20020;-72
2022/09/03 16:08:24;;;;;;;2.17;0.90;;;22.20;57.10;;;;;;6197787;23;20441;-73
2022/09/03 16:10:57;;;;;;;5.68;1.08;;;22.20;56.70;;;;;;6217683;23;20016;-72
2022/09/03 16:13:47;;;;;;;6.43;1.02;;;22.20;56.50;;;;;;6218440;23;20055;-72
2022/09/03 16:16:29;;;;;;;5.68;1.13;;;22.20;57.20;;;;;;6218536;23;20048;-72
2022/09/03 16:19:22;;;;;;;4.88;1.00;;;22.20;57.10;;;;;;6218462;23;20021;-71
2022/09/03 16:22:06;;;;;;;4.70;1.70;;;22.20;57.50;;;;;;6218332;23;20020;-72
2022/09/03 16:24:54;;;;;;;5.65;1.25;;;22.20;58.10;;;;;;6218416;23;20052;-72
2022/09/03 16:27:29;;;;;;;9.75;2.05;;;22.10;58.50;;;;;;6218285;23;20025;-72
2022/09/03 16:30:29;;;;;;;5.97;1.50;;;22.20;59.20;;;;;;6218577;23;20025;-73
2022/09/03 16:33:30;;;;;;;11.07;2.05;;;22.20;59.80;;;;;;6169465;23;20020;-73
2022/09/03 16:35:56;;;;;;;8.15;1.27;;;22.10;59.90;;;;;;6218233;23;20024;-71
2022/09/03 16:38:22;;;;;;;7.55;1.13;;;22.10;59.70;;;;;;6217841;23;20063;-71
2022/09/03 16:40:55;;;;;;;9.00;1.42;;;22.10;60.00;;;;;;6218208;23;20052;-71
2022/09/03 16:43:40;;;;;;;;;;;22.10;60.20;;;;;;6218447;23;20016;-71
2022/09/03 16:46:15;;;;;;;8.45;1.50;;;22.10;60.80;;;;;;6218191;23;19951;-71
2022/09/03 16:48:50;;;;;;;9.45;1.65;;;22.10;60.40;;;;;;6218775;23;20020;-71
2022/09/03 16:51:49;;;;;;;9.52;1.60;;;22.10;60.20;;;;;;6217459;23;20063;-71
2022/09/03 16:54:43;;;;;;;8.65;2.33;;;22.10;60.50;;;;;;6216206;23;20086;-71
2022/09/03 16:57:27;;;;;;;18.45;2.00;;;22.10;60.20;;;;;;6215142;23;20025;-73
2022/09/03 17:00:09;;;;;;;18.73;2.50;;;22.10;58.70;;;;;;6217042;23;20313;-73
2022/09/03 17:02:47;;;;;;;35.10;4.35;;;22.10;58.10;;;;;;6217797;23;20444;-73
2022/09/03 17:05:34;;;;;;;19.90;2.83;;;22.10;58.70;;;;;;6217897;23;20027;-73
2022/09/03 17:08:38;;;;;;;21.80;3.15;;;22.10;58.40;;;;;;6217722;23;20428;-73
2022/09/03 17:11:22;;;;;;;11.30;2.10;;;22.10;58.10;;;;;;6218848;23;20091;-73
2022/09/03 17:14:00;;;;;;;12.27;1.67;;;22.10;57.30;;;;;;6166973;23;20108;-74
2022/09/03 20:12:37;;;;;;;2.38;1.17;;;21.00;60.30;;;;;;6188521;23;20028;-75
2022/09/03 20:15:05;;;;;;;4.57;1.42;;;21.10;60.40;;;;;;6188310;23;20092;-79
2022/09/03 20:17:40;;;;;;;3.65;1.10;;;21.10;61.00;;;;;;6137596;23;20033;-74
2022/09/03 20:20:11;;;;;;;3.72;1.13;;;21.10;60.80;;;;;;6197642;23;20423;-76
2022/09/03 20:22:55;;;;;;;6.00;1.42;;;21.10;60.30;;;;;;6218985;23;20360;-80
2022/09/03 20:25:33;;;;;;;4.25;1.20;;;21.10;60.20;;;;;;6218206;23;20447;-76
2022/09/03 20:28:10;;;;;;;2.88;0.80;;;21.00;59.20;;;;;;6218557;23;20278;-72
2022/09/03 20:30:48;;;;;;;3.10;1.10;;;21.00;58.30;;;;;;6218538;23;20067;-76
2022/09/03 20:33:29;;;;;;;3.28;1.20;;;20.90;57.80;;;;;;6218694;23;20075;-84
2022/09/03 20:36:35;;;;;;;3.30;1.15;;;20.90;57.30;;;;;;6218419;23;20275;-77
2022/09/03 20:39:23;;;;;;;4.82;1.00;;;20.80;57.00;;;;;;6212097;23;20023;-73
2022/09/03 20:42:03;;;;;;;3.38;1.10;;;20.80;57.00;;;;;;6218453;23;20044;-78
2022/09/03 20:44:51;;;;;;;5.43;1.05;;;20.70;56.80;;;;;;6218332;23;20009;-74
2022/09/03 20:47:45;;;;;;;5.13;1.30;;;20.70;57.30;;;;;;6218456;23;20025;-74
2022/09/03 20:50:26;;;;;;;1.35;0.80;;;20.60;56.70;;;;;;6219073;23;20052;-74
2022/09/03 20:53:06;;;;;;;3.35;0.80;;;20.60;56.70;;;;;;6218292;23;20016;-74
2022/09/03 20:55:42;;;;;;;3.28;1.27;;;20.60;56.60;;;;;;6219210;23;20066;-74
2022/09/03 20:58:18;;;;;;;3.22;1.00;;;20.60;56.70;;;;;;6218153;23;20283;-74
2022/09/03 21:01:03;;;;;;;3.42;1.20;;;20.60;56.50;;;;;;6218159;23;20024;-74
2022/09/03 21:03:49;;;;;;;7.43;1.25;;;20.60;56.40;;;;;;6218826;23;20027;-75
2022/09/03 21:06:26;;;;;;;4.68;1.17;;;20.60;56.40;;;;;;6218232;23;20139;-74
2022/09/03 21:09:29;;;;;;;2.13;1.15;;;20.60;56.50;;;;;;6218373;23;20295;-74
2022/09/03 21:12:31;;;;;;;2.15;0.80;;;20.60;56.60;;;;;;6218209;23;20091;-73
2022/09/03 21:15:36;;;;;;;2.25;0.85;;;20.50;56.50;;;;;;6117423;23;20021;-74
2022/09/03 21:18:34;;;;;;;2.92;1.10;;;20.50;56.50;;;;;;6217076;23;20025;-73
2022/09/03 21:21:25;;;;;;;2.50;1.10;;;20.50;56.50;;;;;;6175589;23;20052;-73
2022/09/03 21:24:18;;;;;;;2.38;1.00;;;20.50;56.40;;;;;;6217924;23;20021;-73
2022/09/03 21:26:50;;;;;;;2.90;0.95;;;20.50;56.30;;;;;;6217638;23;20496;-73
2022/09/03 21:29:22;;;;;;;2.45;0.98;;;20.40;56.10;;;;;;6217868;23;20057;-74
2022/09/03 21:32:13;;;;;;;2.70;1.20;;;20.40;56.10;;;;;;6217607;23;20421;-74
2022/09/03 21:34:48;;;;;;;5.05;0.80;;;20.40;56.10;;;;;;6217801;23;20008;-73
2022/09/03 21:37:15;;;;;;;2.70;0.93;;;20.40;56.20;;;;;;6218284;23;20013;-73
2022/09/03 21:39:53;;;;;;;5.45;1.10;;;20.40;56.20;;;;;;6217737;23;20100;-74
